Time;durP1;ratioP1;P1;durP2;ratioP2;P2;SDS_P1;SDS_P2;PMS_P1;PMS_P2;Temp;Humidity;BMP_temperature;BMP_pressure;BME280_temperature;BME280_humidity;BME280_pressure;Samples;Min_cycle;Max_cycle;Signal;HPM_P1;HPM_P2
2023/06/11 00:02:32;;;;;;;12.00;4.80;;;;;;;21.78;89.02;99269.16;10368568;28;20120;-69
2023/06/11 00:07:34;;;;;;;27.70;5.75;;;;;;;21.60;89.68;99259.66;10369008;28;20494;-69
2023/06/11 00:12:36;;;;;;;16.70;5.72;;;;;;;21.63;90.03;99270.75;10368513;28;20065;-69
2023/06/11 00:17:37;;;;;;;15.93;5.05;;;;;;;21.63;90.23;99280.75;10367992;28;20068;-69
2023/06/11 00:22:39;;;;;;;19.17;5.43;;;;;;;21.70;90.24;99297.53;10367835;28;20037;-69
2023/06/11 00:27:40;;;;;;;20.85;5.68;;;;;;;21.63;90.50;99289.66;10367439;28;20906;-69
2023/06/11 00:32:41;;;;;;;12.98;5.32;;;;;;;21.62;90.70;99288.03;10367679;28;20124;-69
2023/06/11 00:37:42;;;;;;;21.02;5.40;;;;;;;21.54;90.99;99277.75;10367879;28;20034;-70
2023/06/11 00:42:43;;;;;;;27.77;5.70;;;;;;;21.47;91.42;99284.47;10367543;28;20516;-69
2023/06/11 00:47:44;;;;;;;17.83;5.75;;;;;;;21.36;91.46;99270.13;10367316;28;20084;-69
2023/06/11 00:52:45;;;;;;;20.40;5.28;;;;;;;21.35;91.87;99271.97;10366277;28;20138;-70
2023/06/11 00:57:48;;;;;;;19.63;5.63;;;;;;;21.37;91.96;99283.38;10365643;28;20045;-69
2023/06/11 01:02:59;;;;;;;18.85;5.55;;;;;;;21.32;93.34;99275.19;10366649;28;20056;-70
2023/06/11 01:08:01;;;;;;;22.77;5.18;;;;;;;21.24;92.45;99270.34;10367378;28;20072;-70
2023/06/11 01:13:03;;;;;;;13.95;4.60;;;;;;;20.94;92.93;99236.72;10366868;28;20046;-69
2023/06/11 01:18:11;;;;;;;15.15;5.05;;;;;;;21.14;94.90;99275.69;10365575;28;20489;-70
2023/06/11 01:23:34;;;;;;;15.82;4.88;;;;;;;21.17;95.85;99267.03;10365970;28;20091;-69
2023/06/11 01:28:37;;;;;;;28.73;5.80;;;;;;;20.95;93.74;99262.63;10366665;28;20045;-69
2023/06/11 01:33:38;;;;;;;12.67;4.90;;;;;;;20.95;93.62;99275.31;10366381;28;20439;-69
2023/06/11 01:38:42;;;;;;;17.27;5.25;;;;;;;20.89;93.76;99279.06;10369870;28;20038;-69
2023/06/11 01:43:43;;;;;;;17.38;5.32;;;;;;;20.84;93.61;99270.94;10372925;28;20042;-69
2023/06/11 01:48:44;;;;;;;13.45;5.22;;;;;;;20.86;93.67;99285.00;10372602;28;20041;-69
2023/06/11 01:53:45;;;;;;;14.85;4.30;;;;;;;20.55;93.46;99238.09;10399277;28;20557;-69
2023/06/11 01:58:46;;;;;;;19.13;5.00;;;;;;;20.48;93.54;99244.50;10413602;28;20041;-69
2023/06/11 02:03:46;;;;;;;18.63;4.68;;;;;;;20.90;93.45;99316.59;10413402;28;20045;-69
2023/06/11 02:08:47;;;;;;;24.13;5.28;;;;;;;20.87;93.31;99292.81;10412968;28;20497;-69
2023/06/11 02:13:48;;;;;;;13.15;4.57;;;;;;;21.00;93.33;99317.72;10412710;28;20129;-69
2023/06/11 02:18:49;;;;;;;19.30;4.85;;;;;;;21.02;93.25;99324.50;10413791;28;20045;-69
2023/06/11 02:23:49;;;;;;;23.10;5.18;;;;;;;20.70;92.83;99254.38;10411767;28;20412;-69
2023/06/11 02:28:50;;;;;;;16.02;4.20;;;;;;;21.23;92.40;99325.41;10411339;28;20188;-69
2023/06/11 02:33:51;;;;;;;18.38;4.35;;;;;;;21.05;92.30;99310.47;10412722;28;20124;-69
2023/06/11 02:38:52;;;;;;;22.90;5.45;;;;;;;21.15;92.54;99328.63;10413006;28;20052;-69
2023/06/11 02:43:53;;;;;;;14.40;4.63;;;;;;;21.23;92.49;99311.91;10412360;28;20041;-68
2023/06/11 02:48:53;;;;;;;21.38;4.95;;;;;;;21.19;92.22;99281.09;10412066;28;20045;-69
2023/06/11 02:53:54;;;;;;;15.07;4.82;;;;;;;21.36;91.70;99318.75;10411257;28;20131;-69
2023/06/11 02:58:55;;;;;;;13.95;4.70;;;;;;;20.93;91.56;99245.88;10410803;28;20120;-68
2023/06/11 03:03:56;;;;;;;16.40;4.68;;;;;;;21.12;91.32;99267.84;10411940;28;20057;-69
2023/06/11 03:08:56;;;;;;;13.15;4.70;;;;;;;21.60;90.43;99311.00;10411556;28;20476;-69
2023/06/11 03:13:57;;;;;;;14.60;4.68;;;;;;;21.94;89.84;99326.78;10410716;28;20266;-69
2023/06/11 03:18:58;;;;;;;13.00;4.75;;;;;;;21.80;89.02;99275.09;10411135;28;20037;-69
2023/06/11 03:23:59;;;;;;;14.02;4.53;;;;;;;22.25;88.12;99336.56;10411585;28;20040;-68
2023/06/11 03:29:01;;;;;;;16.80;4.72;;;;;;;22.61;87.07;99333.06;10410081;28;20086;-69
2023/06/11 03:34:03;;;;;;;39.78;5.75;;;;;;;22.45;86.07;99270.00;10410848;28;20041;-68
2023/06/11 03:39:03;;;;;;;14.52;4.45;;;;;;;22.96;85.65;99334.94;10410349;28;20038;-69
2023/06/11 03:44:04;;;;;;;15.38;4.50;;;;;;;23.13;84.61;99323.81;10408103;28;20040;-69
2023/06/11 03:49:05;;;;;;;13.40;3.90;;;;;;;23.54;82.92;99326.34;10410046;28;20045;-69
2023/06/11 03:54:06;;;;;;;11.20;4.10;;;;;;;23.79;81.70;99325.44;10409451;28;20057;-69
2023/06/11 03:59:07;;;;;;;13.52;4.13;;;;;;;24.75;78.52;99317.66;10408684;28;20125;-69
2023/06/11 04:04:08;;;;;;;14.73;4.10;;;;;;;24.99;76.23;99269.59;10394082;28;20580;-68
2023/06/11 04:09:09;;;;;;;11.45;4.05;;;;;;;26.11;73.90;99334.53;10409443;28;20053;-69
2023/06/11 04:14:10;;;;;;;11.50;3.70;;;;;;;25.73;72.94;99264.59;10408522;28;20046;-69
2023/06/11 04:19:10;;;;;;;11.73;3.83;;;;;;;25.99;72.43;99334.16;10409530;28;20065;-69
2023/06/11 04:24:11;;;;;;;11.20;3.90;;;;;;;26.19;70.98;99303.91;10408297;28;20485;-68
2023/06/11 04:29:13;;;;;;;19.67;3.83;;;;;;;26.33;69.95;99306.69;10408306;28;20055;-69
2023/06/11 04:34:16;;;;;;;12.52;3.78;;;;;;;26.44;69.81;99340.00;10408427;28;20033;-68
2023/06/11 04:39:18;;;;;;;17.33;4.30;;;;;;;26.58;68.49;99316.38;10408746;28;20041;-68
2023/06/11 04:44:20;;;;;;;12.55;4.22;;;;;;;26.48;68.77;99360.09;10408742;28;20620;-69
2023/06/11 04:49:21;;;;;;;12.30;4.03;;;;;;;26.23;69.46;99356.66;10408944;28;20132;-68
2023/06/11 04:54:22;;;;;;;11.77;4.30;;;;;;;27.27;66.65;99358.19;10408775;28;20077;-68
2023/06/11 04:59:23;;;;;;;10.52;4.07;;;;;;;27.79;63.76;99273.38;10407353;28;20069;-69
2023/06/11 05:04:23;;;;;;;9.55;3.75;;;;;;;28.49;62.55;99347.66;10408150;28;20071;-68
2023/06/11 05:09:24;;;;;;;13.18;3.90;;;;;;;28.49;62.06;99353.91;10407578;28;20167;-69
2023/06/11 05:14:25;;;;;;;22.38;4.50;;;;;;;28.06;63.21;99359.84;10407165;28;20045;-69
2023/06/11 05:19:26;;;;;;;9.57;3.33;;;;;;;26.96;63.88;99223.59;10407052;28;20174;-68
2023/06/11 05:24:29;;;;;;;10.93;3.92;;;;;;;27.36;64.23;99341.13;10407603;28;20042;-68
2023/06/11 05:29:30;;;;;;;;;;;;;;;27.61;64.16;99351.50;10397522;28;20493;-69
2023/06/11 05:34:33;;;;;;;9.90;4.03;;;;;;;26.90;65.03;99320.97;10383578;28;19921;-69
2023/06/11 05:39:33;;;;;;;;;;;;;;;27.54;64.43;99360.09;10387714;28;20034;-68
2023/06/11 05:44:34;;;;;;;21.00;5.13;;;;;;;27.41;64.54;99344.53;10374913;28;19924;-69
2023/06/11 05:49:35;;;;;;;28.17;4.75;;;;;;;27.34;64.52;99341.41;10406832;28;20128;-68
2023/06/11 05:54:36;;;;;;;11.25;3.85;;;;;;;27.24;63.96;99344.34;10387163;28;20501;-69
2023/06/11 05:59:37;;;;;;;11.15;3.55;;;;;;;27.40;63.93;99348.41;10398886;28;20050;-68
2023/06/11 06:04:38;;;;;;;12.40;4.43;;;;;;;27.70;63.14;99340.66;10404975;28;20516;-68
2023/06/11 06:09:38;;;;;;;13.07;3.75;;;;;;;27.96;62.17;99343.66;10401272;28;20524;-68
2023/06/11 06:14:39;;;;;;;9.25;3.80;;;;;;;27.08;62.11;99183.78;10398064;28;20416;-68
2023/06/11 06:19:40;;;;;;;14.75;4.00;;;;;;;28.12;61.85;99336.75;10385290;28;20046;-68
2023/06/11 06:24:41;;;;;;;12.20;3.50;;;;;;;28.18;61.82;99351.06;10364648;28;20493;-68
2023/06/11 06:29:42;;;;;;;17.77;4.13;;;;;;;27.89;61.92;99340.56;10370211;28;20045;-69
2023/06/11 06:34:43;;;;;;;13.45;3.90;;;;;;;28.03;62.06;99355.00;10411617;28;20048;-69
2023/06/11 06:39:43;;;;;;;12.05;4.20;;;;;;;28.31;61.74;99344.75;10412311;28;20046;-68
2023/06/11 06:44:44;;;;;;;17.23;4.25;;;;;;;28.55;60.50;99343.66;10410274;28;20528;-69
2023/06/11 06:49:45;;;;;;;30.40;4.30;;;;;;;29.07;59.22;99319.34;10404474;28;20076;-70
2023/06/11 06:54:47;;;;;;;15.07;4.20;;;;;;;29.15;59.01;99320.53;10411402;28;20136;-68
2023/06/11 06:59:48;;;;;;;19.85;4.70;;;;;;;29.14;59.02;99327.94;10412225;28;20087;-68
2023/06/11 07:04:50;;;;;;;14.30;3.55;;;;;;;29.01;58.68;99324.13;10411708;28;20085;-68
2023/06/11 07:09:51;;;;;;;20.85;3.92;;;;;;;29.31;57.99;99325.22;10410427;28;20454;-68
2023/06/11 07:14:52;;;;;;;25.63;4.18;;;;;;;29.46;56.90;99334.13;10411203;28;20049;-67
2023/06/11 07:19:53;;;;;;;25.48;4.18;;;;;;;29.60;56.29;99345.75;10412136;28;20048;-68
2023/06/11 07:24:56;;;;;;;24.77;4.22;;;;;;;29.75;55.88;99317.16;10410420;28;20053;-67
2023/06/11 07:29:58;;;;;;;15.15;3.70;;;;;;;29.31;55.65;99261.50;10409393;28;20037;-69
2023/06/11 07:34:59;;;;;;;12.15;3.63;;;;;;;29.52;55.79;99281.66;10409300;28;20042;-68
2023/06/11 07:40:00;;;;;;;21.30;4.53;;;;;;;30.14;55.20;99338.09;10410474;28;20046;-69
2023/06/11 07:45:00;;;;;;;19.23;4.10;;;;;;;29.88;54.49;99318.13;10410880;28;20464;-68
2023/06/11 07:50:03;;;;;;;17.10;3.78;;;;;;;29.80;54.25;99290.44;10409206;28;20041;-69
2023/06/11 07:55:04;;;;;;;20.10;4.22;;;;;;;30.13;53.96;99319.25;10408316;28;20049;-70
2023/06/11 08:00:12;;;;;;;20.73;4.40;;;;;;;30.58;53.32;99340.81;10410388;28;20044;-69
2023/06/11 08:05:17;;;;;;;32.05;4.95;;;;;;;30.72;53.85;99346.91;10410036;28;20413;-70
2023/06/11 08:10:18;;;;;;;14.93;3.85;;;;;;;30.59;53.99;99348.72;10409028;28;20049;-70
2023/06/11 08:15:19;;;;;;;15.90;3.97;;;;;;;30.00;54.03;99275.28;10409378;28;20038;-68
2023/06/11 08:20:20;;;;;;;13.60;3.83;;;;;;;30.56;53.55;99365.00;10402717;28;20609;-70
2023/06/11 08:25:21;;;;;;;17.70;3.83;;;;;;;30.43;53.82;99321.03;10400416;28;20049;-70
2023/06/11 08:30:22;;;;;;;15.65;3.60;;;;;;;30.73;52.79;99343.03;10397424;28;20029;-69
2023/06/11 08:35:22;;;;;;;25.92;4.35;;;;;;;30.89;52.35;99352.38;10395045;28;20041;-69
2023/06/11 08:40:23;;;;;;;18.95;3.95;;;;;;;30.83;51.87;99309.81;10393843;28;20053;-70
2023/06/11 08:45:24;;;;;;;13.18;3.58;;;;;;;30.69;52.43;99331.09;10391719;28;20136;-69
2023/06/11 08:50:26;;;;;;;15.40;3.60;;;;;;;30.90;51.71;99323.00;10391101;28;20507;-70
2023/06/11 08:55:29;;;;;;;15.55;4.10;;;;;;;31.27;51.46;99324.13;10390110;28;20041;-69
2023/06/11 09:00:30;;;;;;;16.20;3.53;;;;;;;31.42;50.40;99335.72;10399173;28;20461;-70
2023/06/11 09:05:31;;;;;;;12.30;3.38;;;;;;;31.01;49.73;99260.38;10392293;28;20160;-70
2023/06/11 09:10:32;;;;;;;26.23;4.32;;;;;;;31.65;50.74;99338.94;10388046;28;20045;-70
2023/06/11 09:15:32;;;;;;;16.55;3.55;;;;;;;31.63;49.72;99331.06;10387648;28;20038;-71
2023/06/11 09:20:34;;;;;;;19.77;4.00;;;;;;;31.41;49.41;99323.94;10390183;28;20029;-70
2023/06/11 09:25:37;;;;;;;22.23;3.88;;;;;;;31.37;49.25;99329.28;10390469;28;20493;-71
2023/06/11 09:30:38;;;;;;;30.38;4.82;;;;;;;31.10;49.73;99314.06;10392582;28;20033;-69
2023/06/11 09:35:44;;;;;;;21.58;3.83;;;;;;;31.19;50.61;99330.47;10388826;28;20618;-70
2023/06/11 09:40:49;;;;;;;15.57;4.05;;;;;;;31.50;49.34;99332.94;10386343;28;20070;-71
2023/06/11 09:45:54;;;;;;;23.60;3.95;;;;;;;31.66;49.53;99324.91;10387934;28;20025;-71
2023/06/11 09:50:55;;;;;;;71.30;7.65;;;;;;;31.81;50.14;99323.50;10387141;28;20494;-71
2023/06/11 09:55:56;;;;;;;22.08;4.43;;;;;;;31.69;49.51;99304.22;10383003;28;20032;-70
2023/06/11 10:01:00;;;;;;;18.23;3.70;;;;;;;31.70;49.31;99301.13;10394789;28;20498;-72
2023/06/11 10:06:06;;;;;;;17.70;3.28;;;;;;;31.57;48.41;99326.91;10398165;28;20431;-69
2023/06/11 10:11:07;;;;;;;12.63;3.63;;;;;;;31.56;49.18;99317.03;10391558;28;20125;-71
2023/06/11 10:16:09;;;;;;;17.13;4.22;;;;;;;31.48;49.32;99306.94;10397016;28;20261;-69
2023/06/11 10:21:10;;;;;;;19.27;4.28;;;;;;;31.29;48.88;99299.94;10392288;28;20120;-71
2023/06/11 10:26:11;;;;;;;16.20;3.92;;;;;;;31.68;48.41;99321.81;10395747;28;20049;-71
2023/06/11 10:31:23;;;;;;;12.27;3.25;;;;;;;31.66;47.73;99269.19;10390151;28;20038;-69
2023/06/11 10:36:35;;;;;;;13.00;3.50;;;;;;;32.21;47.26;99323.84;10393542;28;20087;-70
2023/06/11 10:41:40;;;;;;;14.77;3.50;;;;;;;32.37;47.45;99309.47;10397135;28;20052;-69
2023/06/11 10:46:54;;;;;;;13.85;3.67;;;;;;;32.81;46.13;99318.09;10388264;28;20049;-69
2023/06/11 10:51:55;;;;;;;12.13;3.17;;;;;;;32.23;47.18;99294.09;10410205;28;20045;-70
2023/06/11 10:56:58;;;;;;;17.33;3.47;;;;;;;32.13;47.45;99313.75;10406985;28;20046;-70
2023/06/11 11:01:58;;;;;;;16.60;3.97;;;;;;;31.51;47.78;99256.88;10403979;28;20049;-71
2023/06/11 11:07:08;;;;;;;22.85;4.00;;;;;;;32.06;47.02;99283.25;10403602;28;20060;-71
2023/06/11 11:12:11;;;;;;;13.23;3.65;;;;;;;31.69;47.36;99291.28;10402067;28;20910;-71
2023/06/11 11:17:15;;;;;;;11.13;4.15;;;;;;;31.61;47.63;99311.38;10402103;28;20132;-70
2023/06/11 11:22:16;;;;;;;56.22;5.90;;;;;;;31.46;48.45;99246.09;10377064;28;20098;-71
2023/06/11 11:27:16;;;;;;;14.85;3.80;;;;;;;31.90;48.23;99252.06;10375173;28;20106;-71
2023/06/11 11:32:17;;;;;;;18.10;4.18;;;;;;;32.24;47.44;99248.16;10399797;28;20057;-71
2023/06/11 11:37:18;;;;;;;269.88;17.13;;;;;;;32.76;46.69;99282.53;10379291;28;20458;-71
2023/06/11 11:42:19;;;;;;;15.98;4.18;;;;;;;33.06;45.71;99295.00;10394067;28;20098;-71
2023/06/11 11:47:21;;;;;;;18.92;3.75;;;;;;;33.06;44.76;99308.75;10403095;28;20379;-69
2023/06/11 11:52:23;;;;;;;13.00;3.97;;;;;;;32.96;45.18;99298.16;10381201;28;20038;-71
2023/06/11 11:57:25;;;;;;;8.50;3.93;;;;;;;32.65;45.15;99288.50;10409899;28;20052;-71
2023/06/11 12:02:27;;;;;;;20.10;3.85;;;;;;;32.67;45.44;99308.22;10398474;28;20045;-71
2023/06/11 12:07:28;;;;;;;15.80;3.72;;;;;;;32.49;45.58;99282.88;10404430;28;20054;-71
2023/06/11 12:12:29;;;;;;;25.95;4.80;;;;;;;31.67;46.14;99219.44;10397515;28;20045;-71
2023/06/11 12:17:30;;;;;;;18.65;4.22;;;;;;;32.03;45.63;99278.44;10394416;28;20045;-70
2023/06/11 12:22:31;;;;;;;19.60;4.07;;;;;;;31.98;45.56;99226.44;10385105;28;20082;-71
2023/06/11 12:27:31;;;;;;;17.33;3.80;;;;;;;32.47;45.40;99276.91;10385980;28;20053;-70
2023/06/11 12:32:32;;;;;;;16.15;3.60;;;;;;;32.20;45.25;99272.78;10387175;28;20046;-70
2023/06/11 12:37:34;;;;;;;10.13;3.20;;;;;;;32.40;44.97;99275.81;10382565;28;20090;-71
2023/06/11 12:42:35;;;;;;;18.20;3.90;;;;;;;32.19;44.45;99227.22;10385107;28;20046;-71
2023/06/11 12:47:39;;;;;;;10.68;3.28;;;;;;;32.79;43.80;99304.69;10388757;28;20052;-71
2023/06/11 12:52:42;;;;;;;13.00;3.60;;;;;;;32.95;43.55;99302.84;10388090;28;20440;-71
2023/06/11 12:57:43;;;;;;;18.10;3.30;;;;;;;32.73;43.97;99253.81;10384237;28;20033;-71
2023/06/11 13:02:44;;;;;;;10.40;3.50;;;;;;;33.12;42.93;99290.88;10383295;28;20111;-71
2023/06/11 13:07:47;;;;;;;12.70;3.60;;;;;;;33.17;42.59;99304.38;10384277;28;20062;-71
2023/06/11 13:12:48;;;;;;;25.88;4.57;;;;;;;32.98;42.88;99284.91;10391799;28;20044;-71
2023/06/11 13:17:50;;;;;;;22.13;3.28;;;;;;;32.58;43.06;99225.03;10392097;28;20166;-71
2023/06/11 13:22:51;;;;;;;19.80;3.65;;;;;;;32.93;42.90;99321.63;10406202;28;20130;-70
2023/06/11 13:27:52;;;;;;;13.82;3.70;;;;;;;32.60;42.87;99252.16;10403354;28;20597;-70
2023/06/11 13:32:53;;;;;;;15.23;3.50;;;;;;;32.53;42.77;99250.00;10400913;28;20080;-71
2023/06/11 13:37:54;;;;;;;12.68;3.63;;;;;;;32.73;42.48;99293.09;10397182;28;20050;-70
2023/06/11 13:42:55;;;;;;;75.68;8.55;;;;;;;32.72;42.96;99293.44;10402075;28;20090;-72
2023/06/11 13:48:00;;;;;;;14.95;3.45;;;;;;;32.78;42.66;99311.31;10392200;28;20145;-72
2023/06/11 13:53:01;;;;;;;19.63;3.85;;;;;;;32.71;43.12;99294.59;10386832;28;20613;-71
2023/06/11 13:58:06;;;;;;;21.10;3.42;;;;;;;32.21;42.67;99260.63;10388313;23;20406;-69
2023/06/11 14:03:08;;;;;;;14.55;3.33;;;;;;;32.45;43.10;99328.66;10336342;28;20129;-70
2023/06/11 14:08:13;;;;;;;13.13;3.40;;;;;;;32.17;43.37;99292.69;10408744;28;20066;-70
2023/06/11 14:13:14;;;;;;;34.00;3.90;;;;;;;32.22;43.37;99317.22;10340151;28;20045;-71
2023/06/11 14:18:16;;;;;;;13.10;3.40;;;;;;;32.01;42.93;99320.00;10338665;28;20045;-70
2023/06/11 14:23:17;;;;;;;11.63;3.93;;;;;;;32.00;43.47;99328.56;10333971;28;20038;-70
2023/06/11 14:28:18;;;;;;;14.10;3.72;;;;;;;31.96;43.68;99333.13;10341990;28;20050;-74
2023/06/11 14:33:19;;;;;;;9.80;3.15;;;;;;;31.93;43.29;99322.81;10334221;28;20038;-72
2023/06/11 14:38:21;;;;;;;12.07;3.38;;;;;;;32.02;43.64;99329.81;10335952;28;20053;-75
2023/06/11 14:43:22;;;;;;;10.27;3.38;;;;;;;31.87;43.34;99310.38;10336882;28;20880;-73
2023/06/11 14:48:23;;;;;;;22.37;4.40;;;;;;;31.74;44.10;99307.56;10344422;28;20077;-75
2023/06/11 14:53:24;;;;;;;12.55;3.10;;;;;;;31.90;43.57;99359.19;10349331;28;20297;-74
2023/06/11 14:58:25;;;;;;;8.73;2.95;;;;;;;31.70;43.97;99361.53;10516264;28;20134;-73
2023/06/11 15:03:26;;;;;;;13.95;3.20;;;;;;;31.61;44.35;99366.28;10503667;28;20043;-69
2023/06/11 15:08:27;;;;;;;16.30;3.47;;;;;;;31.05;44.48;99302.44;10518548;28;20432;-71
2023/06/11 15:13:27;;;;;;;13.40;3.53;;;;;;;31.57;44.65;99374.38;10504763;28;20093;-74
2023/06/11 15:18:28;;;;;;;11.32;2.80;;;;;;;31.43;45.47;99381.22;10520882;28;20063;-72
2023/06/11 15:23:29;;;;;;;16.27;3.67;;;;;;;30.76;46.88;99336.09;10506518;28;20480;-73
2023/06/11 15:28:30;;;;;;;14.25;4.32;;;;;;;30.61;47.13;99342.91;10510184;28;20047;-71
2023/06/11 15:33:31;;;;;;;21.58;6.55;;;;;;;30.64;47.66;99386.13;10512275;28;20072;-70
2023/06/11 15:38:32;;;;;;;16.52;5.07;;;;;;;30.33;48.22;99387.09;10503953;28;20098;-73
2023/06/11 15:43:33;;;;;;;24.20;6.07;;;;;;;30.07;49.19;99408.19;10499581;28;20067;-71
2023/06/11 15:48:34;;;;;;;40.97;5.35;;;;;;;29.83;50.03;99416.84;10497583;28;20381;-72
2023/06/11 15:53:35;;;;;;;18.05;3.67;;;;;;;29.57;50.11;99415.59;10497867;28;20048;-73
2023/06/11 15:58:36;;;;;;;15.63;4.60;;;;;;;29.35;50.64;99426.63;10359526;28;20447;-75
2023/06/11 16:03:36;;;;;;;24.35;4.82;;;;;;;28.97;51.10;99394.25;10315284;28;20046;-73
2023/06/11 16:08:37;;;;;;;20.73;4.30;;;;;;;28.96;51.50;99430.91;10318645;28;20039;-72
2023/06/11 16:13:38;;;;;;;17.02;3.90;;;;;;;28.70;51.90;99425.25;10292615;28;20051;-74
2023/06/11 16:18:39;;;;;;;21.85;3.78;;;;;;;28.52;52.85;99448.91;10295567;28;20042;-71
2023/06/11 16:23:40;;;;;;;19.00;3.97;;;;;;;28.36;52.93;99455.81;10410500;28;20048;-73
2023/06/11 16:28:41;;;;;;;9.98;3.53;;;;;;;27.87;56.45;99507.34;10337757;28;20080;-71
2023/06/11 16:33:42;;;;;;;7.95;4.13;;;;;;;27.03;59.09;99513.69;10327545;28;20502;-73
2023/06/11 16:38:43;;;;;;;8.50;3.50;;;;;;;26.51;60.77;99512.06;10305405;28;20125;-72
2023/06/11 16:43:43;;;;;;;9.23;3.70;;;;;;;26.00;61.48;99502.59;10322467;28;20137;-73
2023/06/11 16:48:46;;;;;;;13.55;2.97;;;;;;;25.97;62.16;99533.13;10311495;28;20105;-78
2023/06/11 16:53:46;;;;;;;6.07;3.00;;;;;;;25.82;63.20;99541.44;10297250;28;20046;-74
2023/06/11 16:58:47;;;;;;;12.68;3.20;;;;;;;25.28;65.15;99507.97;10379107;28;20061;-74
2023/06/11 17:03:48;;;;;;;7.40;3.28;;;;;;;25.21;66.71;99540.88;10326180;28;20034;-74
2023/06/11 17:08:48;;;;;;;10.27;3.80;;;;;;;25.05;68.38;99539.34;10295210;28;20047;-75
2023/06/11 17:13:50;;;;;;;9.43;3.15;;;;;;;24.75;69.65;99535.75;10355333;28;20087;-84
2023/06/11 17:18:51;;;;;;;6.75;3.20;;;;;;;24.63;71.34;99569.78;10327132;28;20445;-75
2023/06/11 17:23:56;;;;;;;11.38;3.22;;;;;;;24.21;72.78;99541.19;10352332;28;20053;-77
2023/06/11 17:28:57;;;;;;;9.93;3.70;;;;;;;23.81;74.05;99515.78;10294727;28;20042;-75
2023/06/11 17:33:58;;;;;;;8.90;3.53;;;;;;;24.25;74.17;99582.94;10324833;28;20042;-75
2023/06/11 17:38:59;;;;;;;9.13;3.15;;;;;;;24.23;74.46;99582.41;10310726;28;20108;-76
2023/06/11 17:43:59;;;;;;;7.93;3.03;;;;;;;24.19;75.04;99584.84;10316391;28;20035;-74
2023/06/11 17:49:00;;;;;;;8.05;2.67;;;;;;;23.53;75.35;99490.88;10324471;28;20050;-75
2023/06/11 17:54:01;;;;;;;6.90;3.03;;;;;;;23.86;75.87;99532.06;10306492;28;20042;-74
2023/06/11 17:59:04;;;;;;;8.30;3.03;;;;;;;24.05;76.04;99572.97;10290374;28;20090;-75
2023/06/11 18:04:05;;;;;;;6.50;2.75;;;;;;;24.11;75.65;99572.69;10284886;28;20050;-76
2023/06/11 18:09:06;;;;;;;6.30;2.72;;;;;;;24.12;75.80;99574.31;10284834;28;20057;-71
2023/06/11 18:14:07;;;;;;;7.10;2.97;;;;;;;23.71;75.49;99496.84;10284328;28;20066;-70
2023/06/11 18:19:08;;;;;;;7.43;2.85;;;;;;;24.26;74.99;99552.00;10321341;28;20045;-70
2023/06/11 18:24:09;;;;;;;6.93;2.70;;;;;;;24.32;74.50;99540.84;10331999;28;20057;-71
2023/06/11 18:29:10;;;;;;;7.93;2.65;;;;;;;24.27;73.74;99511.00;10330671;28;20148;-70
2023/06/11 18:34:11;;;;;;;7.40;2.50;;;;;;;24.26;73.37;99508.56;10329404;28;20053;-71
2023/06/11 18:39:11;;;;;;;10.27;2.28;;;;;;;24.11;73.65;99474.16;10331411;28;20049;-71
2023/06/11 18:44:12;;;;;;;8.90;2.70;;;;;;;23.43;74.12;99391.44;10330719;28;20037;-70
2023/06/11 18:49:13;;;;;;;4.75;2.33;;;;;;;23.81;75.04;99477.81;10327067;28;20046;-71
2023/06/11 18:54:14;;;;;;;8.60;2.72;;;;;;;23.18;75.06;99400.47;10308790;28;20137;-71
2023/06/11 18:59:15;;;;;;;5.95;2.13;;;;;;;23.46;75.00;99463.25;10325432;28;20506;-71
2023/06/11 19:04:16;;;;;;;17.95;2.65;;;;;;;23.43;75.78;99469.22;10323490;28;20046;-71
2023/06/11 19:09:18;;;;;;;13.63;2.58;;;;;;;23.00;75.76;99401.00;10330550;28;20561;-70
2023/06/11 19:14:19;;;;;;;10.27;2.60;;;;;;;22.92;75.96;99402.34;10331480;28;20038;-69
2023/06/11 19:19:20;;;;;;;7.47;2.70;;;;;;;23.15;76.48;99478.72;10329379;28;20506;-70
2023/06/11 19:24:21;;;;;;;7.38;3.05;;;;;;;23.09;76.67;99477.13;10329547;28;20054;-70
2023/06/11 19:29:21;;;;;;;6.22;2.80;;;;;;;22.94;76.44;99477.91;10328112;28;20046;-71
2023/06/11 19:34:22;;;;;;;9.00;2.50;;;;;;;22.87;76.21;99469.25;10330136;28;20080;-71
2023/06/11 19:39:23;;;;;;;7.38;2.50;;;;;;;22.74;75.89;99460.56;10329541;28;20034;-70
2023/06/11 19:44:25;;;;;;;12.02;3.00;;;;;;;22.56;75.78;99463.81;10328714;28;20406;-70
2023/06/11 19:49:26;;;;;;;13.80;2.42;;;;;;;22.40;76.20;99454.81;10328484;28;20060;-70
2023/06/11 19:54:27;;;;;;;13.68;2.97;;;;;;;22.24;76.71;99436.94;10327974;28;20056;-71
2023/06/11 19:59:30;;;;;;;7.45;2.30;;;;;;;22.39;77.13;99450.50;10327399;28;20068;-71
2023/06/11 20:04:31;;;;;;;8.90;2.50;;;;;;;22.28;77.23;99444.25;10328788;28;20042;-71
2023/06/11 20:09:32;;;;;;;8.35;2.55;;;;;;;21.80;77.87;99399.44;10327827;28;20575;-71
2023/06/11 20:14:34;;;;;;;7.72;2.42;;;;;;;22.20;78.14;99452.91;10328389;28;20041;-71
2023/06/11 20:19:35;;;;;;;12.07;2.70;;;;;;;21.80;77.93;99399.44;10327776;28;20046;-70
2023/06/11 20:24:36;;;;;;;5.30;2.28;;;;;;;22.13;78.56;99460.41;10327959;28;20030;-71
2023/06/11 20:29:38;;;;;;;7.95;2.50;;;;;;;21.92;79.08;99445.19;10328597;28;20410;-71
2023/06/11 20:34:38;;;;;;;6.13;2.45;;;;;;;21.79;79.82;99458.13;10327955;28;20038;-71
2023/06/11 20:39:39;;;;;;;7.65;2.85;;;;;;;21.73;80.34;99459.16;10394259;28;20065;-70
2023/06/11 20:44:40;;;;;;;7.78;3.47;;;;;;;20.87;80.96;99346.81;10327173;28;20130;-70
2023/06/11 20:49:43;;;;;;;9.25;3.60;;;;;;;21.61;81.23;99478.28;10326590;28;20549;-70
2023/06/11 20:54:43;;;;;;;6.85;2.97;;;;;;;21.46;81.71;99466.59;10394527;28;20507;-70
2023/06/11 20:59:45;;;;;;;9.13;3.00;;;;;;;21.15;82.81;99448.25;10327608;28;20058;-70
2023/06/11 21:04:46;;;;;;;10.20;3.20;;;;;;;21.26;82.83;99475.34;10326948;28;20057;-70
2023/06/11 21:09:46;;;;;;;7.57;3.17;;;;;;;20.83;83.59;99439.38;10326754;28;20049;-70
2023/06/11 21:14:47;;;;;;;14.95;3.30;;;;;;;21.09;84.38;99470.06;10326579;28;20502;-70
2023/06/11 21:19:48;;;;;;;11.63;2.55;;;;;;;21.14;84.17;99470.13;10325496;28;20041;-70
2023/06/11 21:24:49;;;;;;;8.65;3.00;;;;;;;20.89;84.80;99455.34;10326105;28;20042;-70
2023/06/11 21:29:50;;;;;;;10.07;3.00;;;;;;;20.93;85.20;99456.44;10326003;28;20129;-70
2023/06/11 21:34:51;;;;;;;7.15;2.80;;;;;;;20.90;85.35;99454.25;10325666;28;20042;-70
2023/06/11 21:39:51;;;;;;;7.38;2.92;;;;;;;20.70;85.21;99436.03;10326093;28;20390;-70
2023/06/11 21:44:52;;;;;;;9.95;3.55;;;;;;;20.16;86.06;99375.84;10392604;28;20050;-70
2023/06/11 21:49:53;;;;;;;10.63;3.80;;;;;;;20.75;86.37;99464.94;10324725;28;20042;-70
2023/06/11 21:54:56;;;;;;;7.72;3.95;;;;;;;20.64;86.90;99455.09;10329435;28;20125;-71
2023/06/11 21:59:59;;;;;;;;;;;;;;;20.73;85.98;99465.22;10502764;28;20122;-70
2023/06/11 22:05:00;;;;;;;9.27;4.00;;;;;;;20.47;86.51;99453.31;10501040;28;19924;-70
2023/06/11 22:10:08;;;;;;;16.75;4.45;;;;;;;20.56;89.49;99464.50;10462852;28;20056;-70
2023/06/11 22:15:10;;;;;;;9.25;3.85;;;;;;;20.47;87.62;99463.31;10461041;28;20417;-70
2023/06/11 22:20:11;;;;;;;11.20;4.53;;;;;;;20.35;88.15;99441.88;10461733;28;20085;-70
2023/06/11 22:25:12;;;;;;;15.68;4.43;;;;;;;19.96;88.48;99385.38;10461070;28;20504;-71
2023/06/11 22:30:14;;;;;;;8.70;3.63;;;;;;;20.35;89.09;99466.16;10460807;28;20040;-70
2023/06/11 22:35:14;;;;;;;7.70;3.88;;;;;;;20.33;89.06;99449.38;10459844;28;20520;-70
2023/06/11 22:40:15;;;;;;;8.00;3.63;;;;;;;20.22;89.30;99450.34;10460765;28;20040;-70
2023/06/11 22:45:16;;;;;;;10.02;3.60;;;;;;;19.66;89.83;99385.84;10460808;28;20511;-70
2023/06/11 22:50:17;;;;;;;7.57;3.75;;;;;;;20.01;90.45;99455.53;10459512;28;20045;-70
2023/06/11 22:55:18;;;;;;;9.25;3.58;;;;;;;19.92;90.67;99448.09;10450594;28;20083;-70
2023/06/11 23:00:19;;;;;;;7.00;3.53;;;;;;;20.01;91.27;99446.59;10291069;28;20062;-70
2023/06/11 23:05:20;;;;;;;5.68;3.08;;;;;;;19.97;90.79;99442.78;10290210;28;20521;-71
2023/06/11 23:10:21;;;;;;;8.05;3.22;;;;;;;19.87;91.10;99438.09;10289865;28;20047;-71